createdAt,value
2019-03-21T00:00:29.197Z,1023.52
2019-03-21T00:01:29.173Z,1023.54
2019-03-21T00:02:29.145Z,1023.55
2019-03-21T00:03:29.116Z,1023.54
2019-03-21T00:04:29.094Z,1023.56
2019-03-21T00:05:29.064Z,1023.57
2019-03-21T00:06:29.037Z,1023.58
2019-03-21T00:07:29.011Z,1023.58
2019-03-21T00:08:28.985Z,1023.59
2019-03-21T00:09:28.961Z,1023.58
2019-03-21T00:10:28.930Z,1023.59
2019-03-21T00:11:28.910Z,1023.55
2019-03-21T00:12:28.878Z,1023.55
2019-03-21T00:13:28.851Z,1023.53
2019-03-21T00:14:28.825Z,1023.57
2019-03-21T00:15:28.799Z,1023.57
2019-03-21T00:16:28.773Z,1023.57
2019-03-21T00:17:28.744Z,1023.57
2019-03-21T00:18:28.718Z,1023.59
2019-03-21T00:19:28.694Z,1023.56
2019-03-21T00:20:28.666Z,1023.59
2019-03-21T00:21:28.640Z,1023.57
2019-03-21T00:22:29.814Z,1023.57
2019-03-21T00:23:28.587Z,1023.6
2019-03-21T00:24:28.559Z,1023.57
2019-03-21T00:25:28.533Z,1023.58
2019-03-21T00:26:28.508Z,1023.6
2019-03-21T00:27:28.483Z,1023.6
2019-03-21T00:28:28.452Z,1023.63
2019-03-21T00:29:28.428Z,1023.62
2019-03-21T00:30:28.404Z,1023.61
2019-03-21T00:31:28.374Z,1023.63
2019-03-21T00:32:28.350Z,1023.71
2019-03-21T00:33:28.321Z,1023.67
2019-03-21T00:34:28.294Z,1023.71
2019-03-21T00:35:28.269Z,1023.68
2019-03-21T00:36:28.241Z,1023.66
2019-03-21T00:37:28.213Z,1023.66
2019-03-21T00:38:28.187Z,1023.66
2019-03-21T00:39:32.581Z,1023.66
2019-03-21T00:40:28.133Z,1023.64
2019-03-21T00:41:28.109Z,1023.63
2019-03-21T00:42:28.079Z,1023.61
2019-03-21T00:43:28.052Z,1023.63
2019-03-21T00:44:28.025Z,1023.62
2019-03-21T00:45:28.001Z,1023.64
2019-03-21T00:46:27.971Z,1023.58
2019-03-21T00:47:27.946Z,1023.6
2019-03-21T00:48:27.920Z,1023.63
2019-03-21T00:49:27.893Z,1023.6
2019-03-21T00:50:27.867Z,1023.6
2019-03-21T00:51:27.839Z,1023.57
2019-03-21T00:52:27.812Z,1023.61
2019-03-21T00:53:27.786Z,1023.6
2019-03-21T00:54:27.759Z,1023.55
2019-03-21T00:55:27.732Z,1023.57
2019-03-21T00:56:27.705Z,1023.55
2019-03-21T00:57:27.677Z,1023.56
2019-03-21T00:58:27.652Z,1023.54
2019-03-21T00:59:27.625Z,1023.54
2019-03-21T01:00:27.597Z,1023.52
2019-03-21T01:01:27.573Z,1023.49
2019-03-21T01:02:27.543Z,1023.51
2019-03-21T01:03:27.518Z,1023.47
2019-03-21T01:04:27.490Z,1023.47
2019-03-21T01:05:27.464Z,1023.54
2019-03-21T01:06:27.440Z,1023.47
2019-03-21T01:07:27.410Z,1023.44
2019-03-21T01:08:27.382Z,1023.44
2019-03-21T01:09:27.355Z,1023.43
2019-03-21T01:10:27.329Z,1023.4
2019-03-21T01:11:27.302Z,1023.42
2019-03-21T01:12:27.411Z,1023.42
2019-03-21T01:13:27.247Z,1023.42
2019-03-21T01:14:29.925Z,1023.37
2019-03-21T01:15:27.192Z,1023.39
2019-03-21T01:16:27.167Z,1023.34
2019-03-21T01:17:27.140Z,1023.34
2019-03-21T01:18:27.163Z,1023.37
2019-03-21T01:19:27.085Z,1023.36
2019-03-21T01:20:27.058Z,1023.36
2019-03-21T01:21:27.031Z,1023.32
2019-03-21T01:22:27.005Z,1023.34
2019-03-21T01:23:26.975Z,1023.32
2019-03-21T01:24:26.949Z,1023.34
2019-03-21T01:25:26.923Z,1023.32
2019-03-21T01:26:26.893Z,1023.29
2019-03-21T01:27:26.867Z,1023.28
2019-03-21T01:28:26.841Z,1023.3
2019-03-21T01:29:26.814Z,1023.29
2019-03-21T01:30:26.786Z,1023.23
2019-03-21T01:31:26.758Z,1023.26
2019-03-21T01:32:26.734Z,1023.24
2019-03-21T01:33:26.706Z,1023.23
2019-03-21T01:34:26.680Z,1023.23
2019-03-21T01:35:26.651Z,1023.3
2019-03-21T01:36:26.624Z,1023.27
2019-03-21T01:37:26.595Z,1023.28
2019-03-21T01:38:26.567Z,1023.28
2019-03-21T01:39:26.541Z,1023.23
2019-03-21T01:40:26.514Z,1023.27
2019-03-21T01:41:26.489Z,1023.26
2019-03-21T01:42:26.460Z,1023.25
2019-03-21T01:43:26.432Z,1023.24
2019-03-21T01:44:26.407Z,1023.24
2019-03-21T01:45:26.378Z,1023.23
2019-03-21T01:46:26.351Z,1023.24
2019-03-21T01:47:26.323Z,1023.27
2019-03-21T01:48:26.299Z,1023.25
2019-03-21T01:49:26.270Z,1023.22
2019-03-21T01:50:27.442Z,1023.22
2019-03-21T01:51:26.214Z,1023.21
2019-03-21T01:52:26.186Z,1023.25
2019-03-21T01:53:26.159Z,1023.24
2019-03-21T01:54:26.132Z,1023.21
2019-03-21T01:55:26.107Z,1023.22
2019-03-21T01:56:26.077Z,1023.23
2019-03-21T01:57:26.049Z,1023.24
2019-03-21T01:58:26.023Z,1023.23
2019-03-21T01:59:25.995Z,1023.22
2019-03-21T02:00:25.968Z,1023.17
2019-03-21T02:01:25.941Z,1023.16
2019-03-21T02:02:25.913Z,1023.14
2019-03-21T02:03:25.886Z,1023.14
2019-03-21T02:04:25.859Z,1023.17
2019-03-21T02:05:25.832Z,1023.15
2019-03-21T02:06:25.804Z,1023.19
2019-03-21T02:07:25.777Z,1023.16
2019-03-21T02:08:25.749Z,1023.15
2019-03-21T02:09:25.722Z,1023.13
2019-03-21T02:10:25.696Z,1023.09
2019-03-21T02:11:25.666Z,1023.12
2019-03-21T02:12:25.640Z,1023.09
2019-03-21T02:13:25.615Z,1023.14
2019-03-21T02:14:25.585Z,1023.07
2019-03-21T02:15:25.556Z,1023.09
2019-03-21T02:16:25.532Z,1023.05
2019-03-21T02:17:25.503Z,1023.09
2019-03-21T02:18:25.474Z,1023.07
2019-03-21T02:19:25.446Z,1023.11
2019-03-21T02:20:25.420Z,1023.08
2019-03-21T02:21:25.392Z,1023.08
2019-03-21T02:22:25.364Z,1023.1
2019-03-21T02:23:25.336Z,1023.09
2019-03-21T02:24:25.310Z,1023.12
2019-03-21T02:25:25.280Z,1023.06
2019-03-21T02:26:25.255Z,1023.07
2019-03-21T02:27:25.226Z,1023.02
2019-03-21T02:28:25.200Z,1023.02
2019-03-21T02:29:25.171Z,1023.01
2019-03-21T02:30:25.146Z,1023.03
2019-03-21T02:31:25.153Z,1022.96
2019-03-21T02:32:25.088Z,1023.03
2019-03-21T02:33:25.060Z,1023.01
2019-03-21T02:34:25.033Z,1023.01
2019-03-21T02:35:25.009Z,1023
2019-03-21T02:36:24.976Z,1023.01
2019-03-21T02:37:24.950Z,1022.99
2019-03-21T02:38:24.923Z,1022.99
2019-03-21T02:39:24.895Z,1023
2019-03-21T02:40:24.867Z,1023.03
2019-03-21T02:41:25.601Z,1023.01
2019-03-21T02:42:24.818Z,1023.07
2019-03-21T02:43:24.785Z,1023.08
2019-03-21T02:44:24.756Z,1023.08
2019-03-21T02:45:24.730Z,1023.07
2019-03-21T02:46:24.701Z,1023.05
2019-03-21T02:47:24.674Z,1023.04
2019-03-21T02:48:24.644Z,1023.06
2019-03-21T02:49:24.623Z,1023.06
2019-03-21T02:50:24.589Z,1023.05
2019-03-21T02:51:24.561Z,1023.05
2019-03-21T02:52:24.533Z,1023.09
2019-03-21T02:53:24.522Z,1023.08
2019-03-21T02:54:24.488Z,1023.09
2019-03-21T02:55:24.451Z,1023.07
2019-03-21T02:56:24.423Z,1023.06
2019-03-21T02:57:24.394Z,1023.05
2019-03-21T02:58:24.369Z,1023.06
2019-03-21T02:59:24.344Z,1023.06
2019-03-21T03:00:24.313Z,1023.06
2019-03-21T03:01:24.290Z,1023.07
2019-03-21T03:02:24.260Z,1023.04
2019-03-21T03:03:24.230Z,1023.08
2019-03-21T03:04:24.213Z,1023.08
2019-03-21T03:05:24.172Z,1023.12
2019-03-21T03:06:24.143Z,1023.06
2019-03-21T03:07:24.117Z,1023.11
2019-03-21T03:08:24.090Z,1023.09
2019-03-21T03:09:24.061Z,1023.09
2019-03-21T03:10:24.036Z,1023.1
2019-03-21T03:11:24.007Z,1023.09
2019-03-21T03:12:23.978Z,1023.09
2019-03-21T03:13:23.949Z,1023.12
2019-03-21T03:14:23.923Z,1023.08
2019-03-21T03:15:23.897Z,1023.08
2019-03-21T03:16:23.873Z,1023.1
2019-03-21T03:17:23.837Z,1023.12
2019-03-21T03:18:23.810Z,1023.11
2019-03-21T03:19:23.788Z,1023.11
2019-03-21T03:20:23.754Z,1023.12
2019-03-21T03:21:23.736Z,1023.09
2019-03-21T03:22:23.702Z,1023.08
2019-03-21T03:23:23.765Z,1023.12
2019-03-21T03:24:23.643Z,1023.11
2019-03-21T03:25:23.630Z,1023.14
2019-03-21T03:26:23.605Z,1023.14
2019-03-21T03:27:23.559Z,1023.15
2019-03-21T03:28:23.531Z,1023.14
2019-03-21T03:29:23.503Z,1023.11
2019-03-21T03:30:23.478Z,1023.11
2019-03-21T03:31:23.447Z,1023.11
2019-03-21T03:32:23.419Z,1023.1
2019-03-21T03:33:23.393Z,1023.1
2019-03-21T03:34:23.363Z,1023.11
2019-03-21T03:35:23.335Z,1023.15
2019-03-21T03:36:23.307Z,1023.13
2019-03-21T03:37:23.280Z,1023.16
2019-03-21T03:38:23.253Z,1023.21
2019-03-21T03:39:23.223Z,1023.15
2019-03-21T03:40:23.198Z,1023.13
2019-03-21T03:41:23.167Z,1023.1
2019-03-21T03:42:23.138Z,1023.15
2019-03-21T03:43:23.112Z,1023.15
2019-03-21T03:44:23.086Z,1023.15
2019-03-21T03:45:36.533Z,1023.18
2019-03-21T03:46:23.087Z,1023.19
2019-03-21T03:47:22.999Z,1023.17
2019-03-21T03:48:22.971Z,1023.18
2019-03-21T03:49:22.943Z,1023.17
2019-03-21T03:50:22.915Z,1023.12
2019-03-21T03:51:22.893Z,1023.13
2019-03-21T03:52:22.862Z,1023.12
2019-03-21T03:53:22.830Z,1023.17
2019-03-21T03:54:22.803Z,1023.15
2019-03-21T03:55:22.777Z,1023.14
2019-03-21T03:56:22.748Z,1023.19
2019-03-21T03:57:22.719Z,1023.2
2019-03-21T03:58:22.693Z,1023.21
2019-03-21T03:59:22.664Z,1023.22
2019-03-21T04:00:22.636Z,1023.24
2019-03-21T04:01:22.607Z,1023.26
2019-03-21T04:02:22.581Z,1023.26
2019-03-21T04:03:22.551Z,1023.33
2019-03-21T04:04:22.523Z,1023.33
2019-03-21T04:05:22.495Z,1023.34
2019-03-21T04:06:22.467Z,1023.38
2019-03-21T04:07:22.440Z,1023.36
2019-03-21T04:08:22.410Z,1023.37
2019-03-21T04:09:22.383Z,1023.34
2019-03-21T04:10:22.354Z,1023.37
2019-03-21T04:11:22.326Z,1023.33
2019-03-21T04:12:22.299Z,1023.31
2019-03-21T04:13:22.273Z,1023.3
2019-03-21T04:14:22.246Z,1023.31
2019-03-21T04:15:22.228Z,1023.32
2019-03-21T04:16:22.190Z,1023.32
2019-03-21T04:17:22.159Z,1023.33
2019-03-21T04:18:22.129Z,1023.3
2019-03-21T04:19:22.105Z,1023.32
2019-03-21T04:20:22.076Z,1023.33
2019-03-21T04:21:22.047Z,1023.35
2019-03-21T04:22:22.017Z,1023.29
2019-03-21T04:23:21.989Z,1023.3
2019-03-21T04:24:21.963Z,1023.27
2019-03-21T04:25:21.937Z,1023.28
2019-03-21T04:26:21.905Z,1023.28
2019-03-21T04:27:21.880Z,1023.24
2019-03-21T04:28:21.849Z,1023.27
2019-03-21T04:29:21.821Z,1023.3
2019-03-21T04:30:21.792Z,1023.24
2019-03-21T04:31:21.763Z,1023.27
2019-03-21T04:32:21.738Z,1023.32
2019-03-21T04:33:22.847Z,1023.29
2019-03-21T04:34:21.680Z,1023.32
2019-03-21T04:35:21.651Z,1023.28
2019-03-21T04:36:21.621Z,1023.28
2019-03-21T04:37:21.595Z,1023.31
2019-03-21T04:38:21.567Z,1023.31
2019-03-21T04:39:21.539Z,1023.28
2019-03-21T04:40:21.512Z,1023.27
2019-03-21T04:41:21.479Z,1023.29
2019-03-21T04:42:21.454Z,1023.26
2019-03-21T04:43:21.425Z,1023.3
2019-03-21T04:44:21.396Z,1023.28
2019-03-21T04:45:21.368Z,1023.3
2019-03-21T04:46:21.342Z,1023.35
2019-03-21T04:47:21.311Z,1023.33
2019-03-21T04:48:21.282Z,1023.36
2019-03-21T04:49:21.305Z,1023.33
2019-03-21T04:50:21.227Z,1023.35
2019-03-21T04:51:21.199Z,1023.3
2019-03-21T04:52:21.171Z,1023.29
2019-03-21T04:53:21.142Z,1023.31
2019-03-21T04:54:21.115Z,1023.28
2019-03-21T04:55:21.085Z,1023.26
2019-03-21T04:56:21.058Z,1023.23
2019-03-21T04:57:21.033Z,1023.23
2019-03-21T04:58:21.003Z,1023.25
2019-03-21T04:59:20.972Z,1023.28
2019-03-21T05:00:20.946Z,1023.26
2019-03-21T05:01:20.918Z,1023.25
2019-03-21T05:02:20.888Z,1023.26
2019-03-21T05:03:20.861Z,1023.25
2019-03-21T05:04:20.833Z,1023.21
2019-03-21T05:05:20.804Z,1023.25
2019-03-21T05:06:20.774Z,1023.24
2019-03-21T05:07:20.746Z,1023.24
2019-03-21T05:08:20.718Z,1023.23
2019-03-21T05:09:20.691Z,1023.2
2019-03-21T05:10:20.664Z,1023.26
2019-03-21T05:11:20.635Z,1023.24
2019-03-21T05:12:20.607Z,1023.26
2019-03-21T05:13:20.578Z,1023.3
2019-03-21T05:14:20.551Z,1023.25
2019-03-21T05:15:20.523Z,1023.25
2019-03-21T05:16:20.521Z,1023.3
2019-03-21T05:17:20.466Z,1023.32
2019-03-21T05:18:20.438Z,1023.33
2019-03-21T05:19:20.413Z,1023.29
2019-03-21T05:20:20.382Z,1023.32
2019-03-21T05:21:20.353Z,1023.33
2019-03-21T05:22:20.325Z,1023.33
2019-03-21T05:23:20.297Z,1023.39
2019-03-21T05:24:20.271Z,1023.36
2019-03-21T05:25:20.240Z,1023.37
2019-03-21T05:26:20.213Z,1023.35
2019-03-21T05:27:20.185Z,1023.36
2019-03-21T05:28:20.156Z,1023.36
2019-03-21T05:29:20.129Z,1023.37
2019-03-21T05:30:20.101Z,1023.37
2019-03-21T05:31:20.071Z,1023.37
2019-03-21T05:32:20.045Z,1023.39
2019-03-21T05:33:20.017Z,1023.39
2019-03-21T05:34:20.249Z,1023.42
2019-03-21T05:35:19.961Z,1023.46
2019-03-21T05:36:19.939Z,1023.41
2019-03-21T05:37:19.908Z,1023.45
2019-03-21T05:38:19.880Z,1023.46
2019-03-21T05:39:19.854Z,1023.42
2019-03-21T05:40:19.824Z,1023.43
2019-03-21T05:41:19.802Z,1023.41
2019-03-21T05:42:19.769Z,1023.41
2019-03-21T05:43:19.743Z,1023.43
2019-03-21T05:44:19.718Z,1023.41
2019-03-21T05:45:19.687Z,1023.47
2019-03-21T05:46:26.316Z,1023.45
2019-03-21T05:47:19.633Z,1023.45
2019-03-21T05:48:19.606Z,1023.47
2019-03-21T05:49:19.582Z,1023.45
2019-03-21T05:50:19.552Z,1023.44
2019-03-21T05:51:19.524Z,1023.41
2019-03-21T05:52:19.496Z,1023.43
2019-03-21T05:53:19.469Z,1023.43
2019-03-21T05:54:19.447Z,1023.45
2019-03-21T05:55:19.414Z,1023.47
2019-03-21T05:56:19.388Z,1023.49
2019-03-21T05:57:19.358Z,1023.47
2019-03-21T05:58:19.335Z,1023.49
2019-03-21T05:59:19.306Z,1023.51
2019-03-21T06:00:19.277Z,1023.46
2019-03-21T06:01:19.251Z,1023.47
2019-03-21T06:02:19.224Z,1023.45
2019-03-21T06:03:19.200Z,1023.48
2019-03-21T06:04:19.171Z,1023.49
2019-03-21T06:05:19.143Z,1023.49
2019-03-21T06:06:19.117Z,1023.52
2019-03-21T06:07:19.089Z,1023.57
2019-03-21T06:08:19.068Z,1023.53
2019-03-21T06:09:19.034Z,1023.53
2019-03-21T06:10:19.009Z,1023.53
2019-03-21T06:11:19.256Z,1023.53
2019-03-21T06:12:19.219Z,1023.57
2019-03-21T06:13:18.927Z,1023.56
2019-03-21T06:14:18.900Z,1023.58
2019-03-21T06:15:18.873Z,1023.58
2019-03-21T06:16:18.847Z,1023.59
2019-03-21T06:17:18.820Z,1023.62
2019-03-21T06:18:18.794Z,1023.61
2019-03-21T06:19:18.882Z,1023.66
2019-03-21T06:20:18.975Z,1023.65
2019-03-21T06:21:19.013Z,1023.68
2019-03-21T06:22:18.830Z,1023.65
2019-03-21T06:23:18.754Z,1023.67
2019-03-21T06:24:18.742Z,1023.67
2019-03-21T06:25:18.994Z,1023.64
2019-03-21T06:26:18.852Z,1023.67
2019-03-21T06:27:18.556Z,1023.7
2019-03-21T06:28:18.563Z,1023.67
2019-03-21T06:29:18.501Z,1023.65
2019-03-21T06:30:18.475Z,1023.69
2019-03-21T06:31:18.449Z,1023.7
2019-03-21T06:32:18.423Z,1023.72
2019-03-21T06:33:18.397Z,1023.72
2019-03-21T06:34:18.369Z,1023.72
2019-03-21T06:35:18.342Z,1023.73
2019-03-21T06:36:18.318Z,1023.7
2019-03-21T06:37:18.291Z,1023.71
2019-03-21T06:38:18.264Z,1023.69
2019-03-21T06:39:18.237Z,1023.72
2019-03-21T06:40:18.217Z,1023.69
2019-03-21T06:41:18.186Z,1023.66
2019-03-21T06:42:18.167Z,1023.71
2019-03-21T06:43:18.499Z,1023.7
2019-03-21T06:44:18.421Z,1023.71
2019-03-21T06:45:18.311Z,1023.7
2019-03-21T06:46:18.158Z,1023.75
2019-03-21T06:47:18.028Z,1023.72
2019-03-21T06:48:18.003Z,1023.72
2019-03-21T06:49:17.977Z,1023.78
2019-03-21T06:50:17.951Z,1023.79
2019-03-21T06:51:17.924Z,1023.79
2019-03-21T06:52:17.900Z,1023.77
2019-03-21T06:53:17.873Z,1023.78
2019-03-21T06:54:17.848Z,1023.79
2019-03-21T06:55:17.819Z,1023.79
2019-03-21T06:56:17.793Z,1023.83
2019-03-21T06:57:17.771Z,1023.83
2019-03-21T06:58:17.743Z,1023.81
2019-03-21T06:59:17.719Z,1023.85
2019-03-21T07:00:17.691Z,1023.81
2019-03-21T07:01:17.666Z,1023.81
2019-03-21T07:02:17.640Z,1023.77
2019-03-21T07:03:17.617Z,1023.82
2019-03-21T07:04:17.588Z,1023.8
2019-03-21T07:05:17.562Z,1023.78
2019-03-21T07:06:17.536Z,1023.74
2019-03-21T07:07:17.509Z,1023.72
2019-03-21T07:08:17.685Z,1023.78
2019-03-21T07:09:17.591Z,1023.77
2019-03-21T07:10:17.432Z,1023.76
2019-03-21T07:11:17.406Z,1023.74
2019-03-21T07:12:17.381Z,1023.76
2019-03-21T07:13:17.356Z,1023.77
2019-03-21T07:14:17.331Z,1023.77
2019-03-21T07:15:17.305Z,1023.8
2019-03-21T07:16:17.281Z,1023.8
2019-03-21T07:17:17.256Z,1023.82
2019-03-21T07:18:17.228Z,1023.79
2019-03-21T07:19:17.205Z,1023.79
2019-03-21T07:20:17.179Z,1023.82
2019-03-21T07:21:17.235Z,1023.79
2019-03-21T07:22:17.128Z,1023.78
2019-03-21T07:23:17.104Z,1023.79
2019-03-21T07:24:17.079Z,1023.79
2019-03-21T07:25:17.053Z,1023.82
2019-03-21T07:26:17.330Z,1023.75
2019-03-21T07:27:17.613Z,1023.78
2019-03-21T07:28:17.348Z,1023.76
2019-03-21T07:29:17.866Z,1023.77
2019-03-21T07:30:17.308Z,1023.75
2019-03-21T07:31:17.551Z,1023.74
2019-03-21T07:32:17.317Z,1023.72
2019-03-21T07:33:16.854Z,1023.75
2019-03-21T07:34:16.831Z,1023.73
2019-03-21T07:35:16.804Z,1023.73
2019-03-21T07:36:16.780Z,1023.72
2019-03-21T07:37:16.755Z,1023.71
2019-03-21T07:38:16.733Z,1023.71
2019-03-21T07:39:16.707Z,1023.69
2019-03-21T07:40:16.683Z,1023.74
2019-03-21T07:41:16.659Z,1023.72
2019-03-21T07:42:16.681Z,1023.75
2019-03-21T07:43:16.610Z,1023.72
2019-03-21T07:44:16.585Z,1023.71
2019-03-21T07:45:17.411Z,1023.68
2019-03-21T07:46:16.561Z,1023.68
2019-03-21T07:47:16.512Z,1023.69
2019-03-21T07:48:16.488Z,1023.69
2019-03-21T07:49:16.468Z,1023.66
2019-03-21T07:50:16.439Z,1023.68
2019-03-21T07:51:16.439Z,1023.62
2019-03-21T07:52:16.391Z,1023.67
2019-03-21T07:53:16.367Z,1023.67
2019-03-21T07:54:16.341Z,1023.7
2019-03-21T07:55:16.320Z,1023.69
2019-03-21T07:56:16.295Z,1023.7
2019-03-21T07:57:16.273Z,1023.66
2019-03-21T07:58:16.246Z,1023.67
2019-03-21T07:59:16.267Z,1023.62
2019-03-21T08:00:16.197Z,1023.66
2019-03-21T08:01:16.174Z,1023.62
2019-03-21T08:02:16.259Z,1023.62
2019-03-21T08:03:16.126Z,1023.64
2019-03-21T08:04:16.103Z,1023.6
2019-03-21T08:05:16.077Z,1023.63
2019-03-21T08:06:16.056Z,1023.67
2019-03-21T08:07:16.030Z,1023.61
2019-03-21T08:08:16.006Z,1023.6
2019-03-21T08:09:15.983Z,1023.65
2019-03-21T08:10:16.011Z,1023.71
2019-03-21T08:11:15.986Z,1023.65
2019-03-21T08:12:15.911Z,1023.67
2019-03-21T08:13:15.887Z,1023.67
2019-03-21T08:14:15.879Z,1023.65
2019-03-21T08:15:15.844Z,1023.66
2019-03-21T08:16:15.937Z,1023.72
2019-03-21T08:17:15.794Z,1023.69
2019-03-21T08:18:16.091Z,1023.7
2019-03-21T08:19:16.214Z,1023.7
2019-03-21T08:20:16.812Z,1023.71
2019-03-21T08:21:16.335Z,1023.7
2019-03-21T08:22:15.778Z,1023.67
2019-03-21T08:23:16.191Z,1023.67
2019-03-21T08:24:15.817Z,1023.68
2019-03-21T08:25:15.610Z,1023.69
2019-03-21T08:26:16.057Z,1023.67
2019-03-21T08:27:15.623Z,1023.67
2019-03-21T08:28:15.538Z,1023.67
2019-03-21T08:29:15.514Z,1023.67
2019-03-21T08:30:15.491Z,1023.67
2019-03-21T08:31:15.468Z,1023.66
2019-03-21T08:32:15.444Z,1023.7
2019-03-21T08:33:15.524Z,1023.73
2019-03-21T08:34:15.399Z,1023.71
2019-03-21T08:35:15.375Z,1023.71
2019-03-21T08:36:15.358Z,1023.73
2019-03-21T08:37:15.333Z,1023.74
2019-03-21T08:38:15.328Z,1023.74
2019-03-21T08:39:15.283Z,1023.72
2019-03-21T08:40:15.260Z,1023.74
2019-03-21T08:41:15.237Z,1023.76
2019-03-21T08:42:15.218Z,1023.73
2019-03-21T08:43:15.192Z,1023.76
2019-03-21T08:44:15.169Z,1023.73
2019-03-21T08:45:15.145Z,1023.8
2019-03-21T08:46:15.127Z,1023.75
2019-03-21T08:47:15.101Z,1023.74
2019-03-21T08:48:15.078Z,1023.75
2019-03-21T08:49:15.055Z,1023.73
2019-03-21T08:50:15.032Z,1023.75
2019-03-21T08:51:15.013Z,1023.72
2019-03-21T08:52:14.990Z,1023.72
2019-03-21T08:53:14.964Z,1023.74
2019-03-21T08:54:14.941Z,1023.78
2019-03-21T08:55:14.919Z,1023.76
2019-03-21T08:56:14.896Z,1023.74
2019-03-21T08:57:14.876Z,1023.75
2019-03-21T08:58:14.851Z,1023.73
2019-03-21T08:59:14.829Z,1023.74
2019-03-21T09:00:14.805Z,1023.71
2019-03-21T09:01:14.785Z,1023.68
2019-03-21T09:02:14.772Z,1023.73
2019-03-21T09:03:14.735Z,1023.74
2019-03-21T09:04:14.711Z,1023.73
2019-03-21T09:05:14.690Z,1023.72
2019-03-21T09:06:14.665Z,1023.65
2019-03-21T09:07:14.643Z,1023.67
2019-03-21T09:08:14.619Z,1023.71
2019-03-21T09:09:14.595Z,1023.67
2019-03-21T09:10:14.572Z,1023.68
2019-03-21T09:11:14.550Z,1023.67
2019-03-21T09:12:14.528Z,1023.67
2019-03-21T09:13:14.504Z,1023.66
2019-03-21T09:14:14.480Z,1023.66
2019-03-21T09:15:14.458Z,1023.68
2019-03-21T09:16:14.438Z,1023.65
2019-03-21T09:17:14.431Z,1023.63
2019-03-21T09:18:14.390Z,1023.61
2019-03-21T09:19:14.369Z,1023.59
2019-03-21T09:20:14.345Z,1023.56
2019-03-21T09:21:19.412Z,1023.5
2019-03-21T09:22:16.071Z,1023.51
2019-03-21T09:23:14.276Z,1023.48
2019-03-21T09:24:14.253Z,1023.48
2019-03-21T09:25:14.231Z,1023.44
2019-03-21T09:26:14.207Z,1023.47
2019-03-21T09:27:14.187Z,1023.52
2019-03-21T09:28:14.437Z,1023.51
2019-03-21T09:29:14.139Z,1023.52
2019-03-21T09:30:14.119Z,1023.54
2019-03-21T09:31:14.097Z,1023.54
2019-03-21T09:32:14.150Z,1023.55
2019-03-21T09:33:14.053Z,1023.57
2019-03-21T09:34:14.031Z,1023.59
2019-03-21T09:35:14.011Z,1023.58
2019-03-21T09:36:13.990Z,1023.6
2019-03-21T09:37:13.966Z,1023.6
2019-03-21T09:38:13.946Z,1023.6
2019-03-21T09:39:13.925Z,1023.57
2019-03-21T09:40:13.903Z,1023.62
2019-03-21T09:41:13.881Z,1023.59
2019-03-21T09:42:13.868Z,1023.64
2019-03-21T09:43:13.839Z,1023.59
2019-03-21T09:44:13.818Z,1023.59
2019-03-21T09:45:13.796Z,1023.64
2019-03-21T09:46:13.777Z,1023.69
2019-03-21T09:47:13.754Z,1023.62
2019-03-21T09:48:13.733Z,1023.62
2019-03-21T09:49:13.712Z,1023.68
2019-03-21T09:50:13.691Z,1023.6
2019-03-21T09:51:13.669Z,1023.6
2019-03-21T09:52:13.647Z,1023.6
2019-03-21T09:53:13.640Z,1023.62
2019-03-21T09:54:13.604Z,1023.61
2019-03-21T09:55:13.583Z,1023.59
2019-03-21T09:56:13.560Z,1023.58
2019-03-21T09:57:13.542Z,1023.58
2019-03-21T09:58:13.519Z,1023.57
2019-03-21T09:59:13.496Z,1023.57
2019-03-21T10:00:13.473Z,1023.55
2019-03-21T10:01:13.453Z,1023.56
2019-03-21T10:02:13.431Z,1023.58
2019-03-21T10:03:13.410Z,1023.57
2019-03-21T10:04:13.389Z,1023.52
2019-03-21T10:05:13.367Z,1023.54
2019-03-21T10:06:13.345Z,1023.51
2019-03-21T10:07:13.324Z,1023.53
2019-03-21T10:08:13.313Z,1023.5
2019-03-21T10:09:13.282Z,1023.48
2019-03-21T10:10:13.263Z,1023.48
2019-03-21T10:11:13.242Z,1023.47
2019-03-21T10:12:13.482Z,1023.45
2019-03-21T10:13:13.196Z,1023.41
2019-03-21T10:14:13.174Z,1023.42
2019-03-21T10:15:13.261Z,1023.42
2019-03-21T10:16:13.132Z,1023.43
2019-03-21T10:17:13.110Z,1023.38
2019-03-21T10:18:13.090Z,1023.41
2019-03-21T10:19:13.068Z,1023.39
2019-03-21T10:20:13.094Z,1023.4
2019-03-21T10:21:13.027Z,1023.45
2019-03-21T10:22:13.006Z,1023.46
2019-03-21T10:23:13.126Z,1023.45
2019-03-21T10:24:12.964Z,1023.44
2019-03-21T10:25:12.942Z,1023.43
2019-03-21T10:26:13.212Z,1023.48
2019-03-21T10:27:13.100Z,1023.46
2019-03-21T10:28:13.396Z,1023.5
2019-03-21T10:29:13.352Z,1023.49
2019-03-21T10:30:13.151Z,1023.5
2019-03-21T10:31:13.291Z,1023.52
2019-03-21T10:32:14.317Z,1023.46
2019-03-21T10:33:13.072Z,1023.46
2019-03-21T10:34:13.193Z,1023.45
2019-03-21T10:35:13.304Z,1023.48
2019-03-21T10:36:13.118Z,1023.49
2019-03-21T10:37:13.150Z,1023.47
2019-03-21T10:38:13.195Z,1023.42
2019-03-21T10:39:12.985Z,1023.46
2019-03-21T10:40:13.219Z,1023.39
2019-03-21T10:41:12.972Z,1023.4
2019-03-21T10:42:12.587Z,1023.43
2019-03-21T10:43:12.566Z,1023.39
2019-03-21T10:44:12.592Z,1023.4
2019-03-21T10:45:12.525Z,1023.39
2019-03-21T10:46:12.504Z,1023.39
2019-03-21T10:47:12.484Z,1023.39
2019-03-21T10:48:12.471Z,1023.42
2019-03-21T10:49:12.443Z,1023.36
2019-03-21T10:50:12.422Z,1023.35
2019-03-21T10:51:13.603Z,1023.37
2019-03-21T10:52:12.382Z,1023.34
2019-03-21T10:53:12.360Z,1023.36
2019-03-21T10:54:12.339Z,1023.34
2019-03-21T10:55:12.319Z,1023.33
2019-03-21T10:56:12.296Z,1023.28
2019-03-21T10:57:12.278Z,1023.38
2019-03-21T10:58:12.258Z,1023.26
2019-03-21T10:59:12.236Z,1023.33
2019-03-21T11:00:12.215Z,1023.37
2019-03-21T11:01:12.194Z,1023.38
2019-03-21T11:02:12.356Z,1023.39
2019-03-21T11:03:12.154Z,1023.38
2019-03-21T11:04:12.147Z,1023.35
2019-03-21T11:05:12.112Z,1023.38
2019-03-21T11:06:12.093Z,1023.39
2019-03-21T11:07:12.072Z,1023.41
2019-03-21T11:08:12.051Z,1023.41
2019-03-21T11:09:12.032Z,1023.39
2019-03-21T11:10:12.015Z,1023.39
2019-03-21T11:11:11.993Z,1023.37
2019-03-21T11:12:11.971Z,1023.36
2019-03-21T11:13:13.154Z,1023.38
2019-03-21T11:14:11.933Z,1023.35
2019-03-21T11:15:11.913Z,1023.31
2019-03-21T11:16:11.896Z,1023.29
2019-03-21T11:17:12.005Z,1023.28
2019-03-21T11:18:11.855Z,1023.24
2019-03-21T11:19:12.072Z,1023.26
2019-03-21T11:20:11.814Z,1023.27
2019-03-21T11:21:11.795Z,1023.24
2019-03-21T11:22:11.853Z,1023.26
2019-03-21T11:23:11.754Z,1023.29
2019-03-21T11:24:11.735Z,1023.29
2019-03-21T11:25:11.720Z,1023.29
2019-03-21T11:26:11.694Z,1023.26
2019-03-21T11:27:11.676Z,1023.31
2019-03-21T11:28:11.656Z,1023.24
2019-03-21T11:29:11.640Z,1023.29
2019-03-21T11:30:15.811Z,1023.28
2019-03-21T11:31:11.596Z,1023.25
2019-03-21T11:32:11.577Z,1023.24
2019-03-21T11:33:11.560Z,1023.14
2019-03-21T11:34:11.641Z,1023.18
2019-03-21T11:35:11.518Z,1023.18
2019-03-21T11:36:11.500Z,1023.16
2019-03-21T11:37:11.478Z,1023.15
2019-03-21T11:38:11.466Z,1023.09
2019-03-21T11:39:11.441Z,1023.11
2019-03-21T11:40:11.420Z,1023
2019-03-21T11:41:11.403Z,1023.02
2019-03-21T11:42:11.386Z,1023.08
2019-03-21T11:43:11.496Z,1023.06
2019-03-21T11:44:11.343Z,1022.98
2019-03-21T11:45:11.324Z,1022.94
2019-03-21T11:46:11.307Z,1023.03
2019-03-21T11:47:11.285Z,1023
2019-03-21T11:48:11.264Z,1022.96
2019-03-21T11:49:11.246Z,1022.95
2019-03-21T11:50:11.227Z,1022.95
2019-03-21T11:51:11.218Z,1022.99
2019-03-21T11:52:17.984Z,1022.96
2019-03-21T11:53:11.168Z,1022.98
2019-03-21T11:54:11.147Z,1022.98
2019-03-21T11:55:11.139Z,1022.94
2019-03-21T11:56:13.022Z,1022.94
2019-03-21T11:57:11.090Z,1022.92
2019-03-21T11:58:11.070Z,1022.89
2019-03-21T11:59:11.090Z,1022.96
2019-03-21T12:00:11.034Z,1022.97
2019-03-21T12:01:11.016Z,1022.89
2019-03-21T12:02:10.992Z,1022.89
2019-03-21T12:03:10.974Z,1022.88
2019-03-21T12:04:10.955Z,1022.88
2019-03-21T12:05:10.935Z,1022.89
2019-03-21T12:06:10.918Z,1022.87
2019-03-21T12:07:10.897Z,1022.84